createdAt,value
2022-07-29T00:00:18.602Z,97910.69
2022-07-29T00:03:40.252Z,97899.53
2022-07-29T00:06:46.591Z,97902.81
2022-07-29T00:09:52.537Z,97897.06
2022-07-29T00:12:59.714Z,97896.75
2022-07-29T00:16:04.880Z,97898.91
2022-07-29T00:19:10.409Z,97903.31
2022-07-29T00:22:15.016Z,97909.63
2022-07-29T00:25:19.657Z,97903.50
2022-07-29T00:28:25.845Z,97913.25
2022-07-29T00:31:30.346Z,97918.25
2022-07-29T00:34:51.813Z,97914.81
2022-07-29T00:37:56.001Z,97890.28
2022-07-29T00:41:00.288Z,97891.63
2022-07-29T00:44:08.078Z,97900.59
2022-07-29T00:47:14.281Z,97904.41
2022-07-29T00:50:19.388Z,97899.97
2022-07-29T00:53:24.419Z,97890.06
2022-07-29T00:56:29.353Z,97900.75
2022-07-29T00:59:35.586Z,97886.44
2022-07-29T01:02:42.141Z,97887.66
2022-07-29T01:05:51.465Z,97895.81
2022-07-29T01:08:57.838Z,97901.53
2022-07-29T01:12:02.560Z,97898.88
2022-07-29T01:15:15.355Z,97881.13
2022-07-29T01:18:24.558Z,97886.94
2022-07-29T01:21:54.797Z,97889.78
2022-07-29T01:25:17.436Z,97878.34
2022-07-29T01:28:44.260Z,97877.69
2022-07-29T01:31:59.134Z,97881.09
2022-07-29T01:35:11.589Z,97877.94
2022-07-29T01:38:23.339Z,97878.88
2022-07-29T01:41:31.094Z,97880.16
2022-07-29T01:44:40.897Z,97880.88
2022-07-29T01:47:57.607Z,97885.31
2022-07-29T01:51:10.067Z,97883.88
2022-07-29T01:54:22.348Z,97877.88
2022-07-29T01:57:30.980Z,97875.16
2022-07-29T02:00:38.463Z,97879.66
2022-07-29T02:03:46.388Z,97876.41
2022-07-29T02:06:53.860Z,97874.97
2022-07-29T02:10:01.162Z,97868.50
2022-07-29T02:13:06.809Z,97874.84
2022-07-29T02:16:14.956Z,97871.78
2022-07-29T02:19:21.101Z,97870.63
2022-07-29T02:22:26.827Z,97869.25
2022-07-29T02:25:38.071Z,97868.72
2022-07-29T02:28:43.705Z,97863.44
2022-07-29T02:31:53.328Z,97854.81
2022-07-29T02:35:00.862Z,97864.66
2022-07-29T02:38:23.648Z,97878.16
2022-07-29T02:41:33.295Z,97871.91
2022-07-29T02:44:40.445Z,97861.00
2022-07-29T02:48:07.165Z,97867.03
2022-07-29T02:51:43.390Z,97867.13
2022-07-29T02:54:48.334Z,97869.31
2022-07-29T02:58:00.901Z,97865.38
2022-07-29T03:01:06.934Z,97864.59
2022-07-29T03:04:15.531Z,97867.25
2022-07-29T03:07:22.030Z,97873.28
2022-07-29T03:10:29.256Z,97871.09
2022-07-29T03:13:33.911Z,97869.44
2022-07-29T03:16:41.392Z,97873.44
2022-07-29T03:19:47.434Z,97870.84
2022-07-29T03:22:52.174Z,97868.22
2022-07-29T03:25:56.493Z,97887.41
2022-07-29T03:29:03.187Z,97888.97
2022-07-29T03:32:09.100Z,97887.38
2022-07-29T03:35:17.968Z,97889.84
2022-07-29T03:38:27.918Z,97889.25
2022-07-29T03:41:33.989Z,97896.34
2022-07-29T03:44:44.194Z,97895.44
2022-07-29T03:47:57.036Z,97893.81
2022-07-29T03:51:05.945Z,97905.44
2022-07-29T03:54:11.518Z,97905.75
2022-07-29T03:57:17.605Z,97899.28
2022-07-29T04:00:22.116Z,97903.97
2022-07-29T04:03:26.322Z,97900.44
2022-07-29T04:06:40.536Z,97912.31
2022-07-29T04:09:44.574Z,97903.72
2022-07-29T04:12:48.692Z,97911.91
2022-07-29T04:15:52.651Z,97912.91
2022-07-29T04:18:57.029Z,97909.59
2022-07-29T04:22:03.918Z,97917.78
2022-07-29T04:25:09.323Z,97911.84
2022-07-29T04:28:17.213Z,97911.09
2022-07-29T04:31:25.866Z,97915.19
2022-07-29T04:34:30.871Z,97922.47
2022-07-29T04:37:36.751Z,97923.25
2022-07-29T04:40:41.201Z,97921.47
2022-07-29T04:43:45.996Z,97922.44
2022-07-29T04:46:51.350Z,97929.94
2022-07-29T04:49:57.401Z,97937.75
2022-07-29T04:53:02.875Z,97933.06
2022-07-29T04:56:07.955Z,97931.78
2022-07-29T04:59:13.702Z,97931.81
2022-07-29T05:02:18.347Z,97933.75
2022-07-29T05:05:22.382Z,97930.72
2022-07-29T05:08:28.632Z,97934.09
2022-07-29T05:11:34.206Z,97935.03
2022-07-29T05:14:38.477Z,97941.50
2022-07-29T05:17:42.335Z,97929.78
2022-07-29T05:20:46.874Z,97942.97
2022-07-29T05:23:52.836Z,97934.53
2022-07-29T05:26:57.386Z,97937.16
2022-07-29T05:30:01.395Z,97934.81
2022-07-29T05:33:08.356Z,97931.34
2022-07-29T05:36:32.788Z,97933.13
2022-07-29T05:39:48.526Z,97938.28
2022-07-29T05:42:53.670Z,97933.47
2022-07-29T05:46:00.693Z,97931.38
2022-07-29T05:49:05.619Z,97935.38
2022-07-29T05:52:14.186Z,97929.31
2022-07-29T05:55:23.392Z,97930.72
2022-07-29T05:58:36.095Z,97934.47
2022-07-29T06:01:43.586Z,97935.44
2022-07-29T06:04:49.935Z,97938.44
2022-07-29T06:07:54.755Z,97933.41
2022-07-29T06:11:03.357Z,97933.41
2022-07-29T06:14:09.169Z,97933.00
2022-07-29T06:17:15.169Z,97939.97
2022-07-29T06:20:27.149Z,97935.50
2022-07-29T06:23:33.881Z,97929.63
2022-07-29T06:26:43.248Z,97931.72
2022-07-29T06:29:51.131Z,97926.50
2022-07-29T06:32:56.292Z,97928.00
2022-07-29T06:36:02.426Z,97925.44
2022-07-29T06:39:08.882Z,97919.06
2022-07-29T06:42:18.628Z,97911.25
2022-07-29T06:45:25.562Z,97908.34
2022-07-29T06:48:35.942Z,97910.38
2022-07-29T06:51:41.077Z,97916.75
2022-07-29T06:55:13.099Z,97923.22
2022-07-29T06:58:32.130Z,97924.00
2022-07-29T07:01:41.233Z,97923.22
2022-07-29T07:04:46.668Z,97925.47
2022-07-29T07:07:57.209Z,97930.63
2022-07-29T07:11:02.266Z,97928.63
2022-07-29T07:14:09.534Z,97935.44
2022-07-29T07:17:17.298Z,97923.78
2022-07-29T07:20:23.442Z,97922.38
2022-07-29T07:23:31.509Z,97919.66
2022-07-29T07:26:36.851Z,97917.28
2022-07-29T07:29:44.274Z,97933.44
2022-07-29T07:32:50.987Z,97927.22
2022-07-29T07:35:55.493Z,97933.53
2022-07-29T07:39:00.086Z,97928.81
2022-07-29T07:42:08.191Z,97932.56
2022-07-29T07:45:16.582Z,97934.94
2022-07-29T07:48:21.883Z,97932.13
2022-07-29T07:51:28.976Z,97927.72
2022-07-29T07:54:34.253Z,97929.47
2022-07-29T07:57:41.136Z,97926.56
2022-07-29T08:00:48.885Z,97930.09
2022-07-29T08:03:53.494Z,97924.13
2022-07-29T08:07:00.999Z,97911.81
2022-07-29T08:10:06.901Z,97907.41
2022-07-29T08:13:13.551Z,97919.13
2022-07-29T08:16:23.295Z,97922.50
2022-07-29T08:19:28.543Z,97922.69
2022-07-29T08:22:35.267Z,97923.00
2022-07-29T08:25:40.789Z,97929.59
2022-07-29T08:28:51.456Z,97916.38
2022-07-29T08:31:58.187Z,97921.81
2022-07-29T08:35:02.795Z,97919.63
2022-07-29T08:38:08.391Z,97917.63
2022-07-29T08:41:14.268Z,97914.22
2022-07-29T08:44:22.305Z,97913.50
2022-07-29T08:47:39.913Z,97922.56
2022-07-29T08:50:46.748Z,97907.22
2022-07-29T08:53:53.141Z,97922.41
2022-07-29T08:57:00.592Z,97905.78
2022-07-29T09:00:11.794Z,97908.56
2022-07-29T09:03:20.572Z,97898.31
2022-07-29T09:06:29.007Z,97894.22
2022-07-29T09:09:34.033Z,97901.88
2022-07-29T09:12:39.042Z,97892.31
2022-07-29T09:15:43.399Z,97891.06
2022-07-29T09:18:49.764Z,97893.38
2022-07-29T09:22:03.286Z,97883.94
2022-07-29T09:25:10.188Z,97880.91
2022-07-29T09:28:17.721Z,97875.66
2022-07-29T09:31:35.044Z,97876.56
2022-07-29T09:34:41.070Z,97877.59
2022-07-29T09:37:46.985Z,97872.78
2022-07-29T09:40:59.963Z,97866.22
2022-07-29T09:44:11.560Z,97867.03
2022-07-29T09:47:19.004Z,97866.25
2022-07-29T09:50:37.230Z,97865.13
2022-07-29T09:53:43.980Z,97869.00
2022-07-29T09:56:52.726Z,97864.00
2022-07-29T09:59:59.702Z,97852.34
2022-07-29T10:03:04.992Z,97857.44
2022-07-29T10:06:14.639Z,97853.41
2022-07-29T10:09:22.300Z,97851.59
2022-07-29T10:12:26.998Z,97851.19
2022-07-29T10:15:33.370Z,97843.28
2022-07-29T10:18:37.391Z,97831.75
2022-07-29T10:21:45.294Z,97831.91
2022-07-29T10:24:50.992Z,97833.97
2022-07-29T10:27:57.649Z,97823.22
2022-07-29T10:31:07.748Z,97819.63
2022-07-29T10:34:22.685Z,97811.38
2022-07-29T10:37:36.168Z,97806.97
2022-07-29T10:41:10.876Z,97799.09
2022-07-29T10:44:22.868Z,97802.44
2022-07-29T10:47:30.384Z,97797.72
2022-07-29T10:50:55.573Z,97802.25
2022-07-29T10:54:06.019Z,97794.38
2022-07-29T10:57:15.694Z,97795.22
2022-07-29T11:00:32.342Z,97793.34
2022-07-29T11:03:49.777Z,97793.09
2022-07-29T11:07:10.729Z,97779.16
2022-07-29T11:10:37.811Z,97780.72
2022-07-29T11:13:57.048Z,97782.94
2022-07-29T11:17:07.571Z,97776.47
2022-07-29T11:20:51.116Z,97776.19
2022-07-29T11:24:14.855Z,97767.81
2022-07-29T11:27:40.743Z,97775.03
2022-07-29T11:30:51.950Z,97778.88
2022-07-29T11:33:56.967Z,97761.44
2022-07-29T11:37:28.207Z,97769.75
2022-07-29T11:40:33.113Z,97756.69
2022-07-29T11:43:54.907Z,97755.28
2022-07-29T11:46:59.493Z,97749.63
2022-07-29T11:50:10.339Z,97760.34
2022-07-29T11:53:16.414Z,97745.00
2022-07-29T11:56:27.531Z,97735.25
2022-07-29T11:59:44.987Z,97745.31
2022-07-29T12:02:49.343Z,97747.56
2022-07-29T12:05:53.721Z,97747.66
2022-07-29T12:09:01.640Z,97748.28
2022-07-29T12:12:22.188Z,97748.41
2022-07-29T12:15:47.258Z,97745.03
2022-07-29T12:19:02.460Z,97745.25
2022-07-29T12:25:52.129Z,97737.44
2022-07-29T12:28:58.874Z,97730.44
2022-07-29T12:32:14.559Z,97731.63
2022-07-29T12:35:25.474Z,97730.25
2022-07-29T12:38:38.182Z,97721.41
2022-07-29T12:41:46.119Z,97717.69
2022-07-29T12:44:56.311Z,97716.56
2022-07-29T12:48:02.908Z,97711.03
2022-07-29T12:51:15.418Z,97711.16
2022-07-29T12:54:20.207Z,97711.66
2022-07-29T12:57:25.024Z,97699.50
2022-07-29T13:00:32.350Z,97701.41
2022-07-29T13:04:03.465Z,97693.84
2022-07-29T13:07:15.568Z,97692.00
2022-07-29T13:10:24.601Z,97682.81
2022-07-29T13:13:29.352Z,97684.13
2022-07-29T13:16:33.556Z,97688.34
2022-07-29T13:19:42.840Z,97685.59
2022-07-29T13:22:50.677Z,97684.59
2022-07-29T13:25:54.777Z,97678.56
2022-07-29T13:28:59.102Z,97665.81
2022-07-29T13:32:03.425Z,97671.69
2022-07-29T13:35:11.005Z,97677.34
2022-07-29T13:38:17.969Z,97659.81
2022-07-29T13:41:27.324Z,97669.06
2022-07-29T13:44:32.797Z,97658.38
2022-07-29T13:47:46.066Z,97656.28
2022-07-29T13:51:05.130Z,97658.25
2022-07-29T13:54:10.641Z,97654.16
2022-07-29T13:57:16.536Z,97644.88
2022-07-29T14:00:20.661Z,97659.91
2022-07-29T14:03:25.727Z,97656.94
2022-07-29T14:11:40.777Z,97654.53
2022-07-29T14:14:48.266Z,97653.03
2022-07-29T14:17:52.175Z,97643.75
2022-07-29T14:21:00.775Z,97638.88
2022-07-29T14:24:14.150Z,97640.66
2022-07-29T14:27:37.333Z,97646.81
2022-07-29T14:30:49.027Z,97637.97
2022-07-29T14:33:54.973Z,97637.72
2022-07-29T14:36:59.126Z,97640.25
2022-07-29T14:40:18.479Z,97641.25
2022-07-29T14:43:26.160Z,97639.50
2022-07-29T14:46:42.318Z,97625.94
2022-07-29T14:49:56.132Z,97626.69
2022-07-29T14:53:02.269Z,97630.69
2022-07-29T14:56:35.599Z,97628.56
2022-07-29T14:59:52.021Z,97625.69
2022-07-29T15:03:02.346Z,97620.97
2022-07-29T15:06:06.605Z,97634.63
2022-07-29T15:09:11.109Z,97626.72
2022-07-29T15:12:15.454Z,97616.94
2022-07-29T15:15:20.988Z,97620.06
2022-07-29T15:18:25.484Z,97616.31
2022-07-29T15:21:29.957Z,97610.28
2022-07-29T15:24:33.719Z,97614.69
2022-07-29T15:27:37.957Z,97609.28
2022-07-29T15:31:26.321Z,97605.00
2022-07-29T15:34:33.222Z,97608.66
2022-07-29T15:37:48.948Z,97599.09
2022-07-29T15:45:27.088Z,97588.56
2022-07-29T15:48:41.462Z,97591.19
2022-07-29T15:51:48.948Z,97597.97
2022-07-29T15:58:29.429Z,97594.31
2022-07-29T16:01:47.016Z,97593.06
2022-07-29T16:04:51.590Z,97584.41
2022-07-29T16:08:00.956Z,97590.44
2022-07-29T16:11:05.709Z,97590.47
2022-07-29T16:14:11.131Z,97585.34
2022-07-29T16:17:20.578Z,97597.16
2022-07-29T16:20:39.313Z,97589.88
2022-07-29T16:24:01.126Z,97592.50
2022-07-29T16:27:06.335Z,97595.66
2022-07-29T16:30:11.539Z,97602.53
2022-07-29T16:33:16.135Z,97596.38
2022-07-29T16:36:20.919Z,97588.97
2022-07-29T16:39:27.271Z,97594.97
2022-07-29T16:42:46.072Z,97586.31
2022-07-29T16:45:52.164Z,97585.06
2022-07-29T16:48:58.220Z,97585.69
2022-07-29T16:52:02.855Z,97598.69
2022-07-29T16:55:09.738Z,97604.38
2022-07-29T16:58:13.985Z,97591.63
2022-07-29T17:01:18.303Z,97596.81
2022-07-29T17:04:23.010Z,97602.00
2022-07-29T17:07:27.534Z,97605.78
2022-07-29T17:10:33.378Z,97607.06
2022-07-29T17:13:37.365Z,97597.97
2022-07-29T17:16:42.051Z,97607.31
2022-07-29T17:19:57.438Z,97613.06
2022-07-29T17:23:18.293Z,97623.88
2022-07-29T17:26:23.997Z,97622.78
2022-07-29T17:29:28.279Z,97626.72
2022-07-29T17:33:02.272Z,97629.34
2022-07-29T17:36:25.453Z,97635.84
2022-07-29T17:39:29.385Z,97634.50
2022-07-29T17:43:48.598Z,97636.59
2022-07-29T17:46:54.090Z,97627.81
2022-07-29T17:49:58.501Z,97637.06
2022-07-29T17:53:27.101Z,97641.38
2022-07-29T17:56:31.620Z,97634.44
2022-07-29T17:59:35.926Z,97632.66
2022-07-29T18:02:45.022Z,97637.72
2022-07-29T18:05:49.751Z,97638.66
2022-07-29T18:08:54.237Z,97633.38
2022-07-29T18:28:02.567Z,97648.66
2022-07-29T18:35:36.672Z,97665.88
2022-07-29T18:40:09.514Z,97663.53
2022-07-29T18:44:18.294Z,97677.47
2022-07-29T18:47:24.157Z,97664.81
2022-07-29T18:50:36.599Z,97675.97
2022-07-29T18:53:40.551Z,97672.59
2022-07-29T18:56:45.331Z,97670.56
2022-07-29T18:59:50.891Z,97671.38
2022-07-29T19:02:59.011Z,97685.69
2022-07-29T19:06:04.278Z,97684.19
2022-07-29T19:09:12.026Z,97687.50
2022-07-29T19:12:18.891Z,97689.22
2022-07-29T19:16:01.053Z,97704.97
2022-07-29T19:19:11.349Z,97687.31
2022-07-29T19:22:17.322Z,97698.59
2022-07-29T19:25:21.740Z,97693.31
2022-07-29T19:28:26.241Z,97704.47
2022-07-29T19:32:00.615Z,97709.03
2022-07-29T19:35:28.146Z,97709.34
2022-07-29T19:38:32.347Z,97724.50
2022-07-29T19:41:36.784Z,97721.97
2022-07-29T19:44:40.936Z,97717.94
2022-07-29T19:48:11.666Z,97722.94
2022-07-29T19:51:17.126Z,97729.41
2022-07-29T19:54:21.530Z,97717.72
2022-07-29T19:57:26.166Z,97717.09
2022-07-29T20:00:31.925Z,97724.88
2022-07-29T20:04:20.256Z,97715.94
2022-07-29T20:14:40.979Z,97718.66
2022-07-29T20:17:45.460Z,97727.53
2022-07-29T20:24:47.500Z,97723.38
2022-07-29T20:27:53.663Z,97727.53
2022-07-29T20:30:58.294Z,97730.63
2022-07-29T20:34:03.687Z,97734.22
2022-07-29T20:37:11.092Z,97747.56
2022-07-29T20:40:18.222Z,97738.97
2022-07-29T20:43:23.935Z,97744.84
2022-07-29T20:46:28.134Z,97749.59
2022-07-29T20:49:32.139Z,97746.50
2022-07-29T20:52:41.061Z,97738.03
2022-07-29T20:55:49.291Z,97742.84
2022-07-29T20:59:01.305Z,97750.19
2022-07-29T21:02:10.967Z,97754.66
2022-07-29T21:05:17.167Z,97756.97
2022-07-29T21:08:21.073Z,97755.13
2022-07-29T21:11:43.855Z,97750.19
2022-07-29T21:15:46.427Z,97759.31
2022-07-29T21:18:51.243Z,97757.03
2022-07-29T21:21:55.311Z,97742.63
2022-07-29T21:24:59.563Z,97749.84
2022-07-29T21:28:22.338Z,97748.13
2022-07-29T21:31:56.629Z,97746.41
2022-07-29T21:35:00.441Z,97754.19
2022-07-29T21:38:05.137Z,97749.03
2022-07-29T21:41:11.472Z,97746.41
2022-07-29T21:44:18.686Z,97744.91
2022-07-29T21:47:22.650Z,97742.22
2022-07-29T21:50:27.849Z,97739.38
2022-07-29T21:54:01.023Z,97746.41
2022-07-29T21:57:07.406Z,97733.25
2022-07-29T22:04:55.853Z,97740.13
2022-07-29T22:08:00.858Z,97719.97
2022-07-29T22:11:29.549Z,97719.53
2022-07-29T22:14:38.965Z,97720.91
2022-07-29T22:17:43.831Z,97724.69
2022-07-29T22:21:05.425Z,97717.72
2022-07-29T22:24:14.579Z,97717.44
2022-07-29T22:31:59.654Z,97732.59
2022-07-29T22:35:06.878Z,97722.28
2022-07-29T22:38:13.748Z,97722.81
2022-07-29T22:41:18.911Z,97723.19
2022-07-29T22:44:24.091Z,97718.44
2022-07-29T22:52:37.995Z,97710.34
2022-07-29T22:55:43.990Z,97705.44
2022-07-29T23:05:04.871Z,97710.81
2022-07-29T23:08:11.113Z,97713.88
2022-07-29T23:11:16.624Z,97707.47
2022-07-29T23:14:21.128Z,97702.34
2022-07-29T23:17:26.742Z,97696.84
2022-07-29T23:20:31.615Z,97696.41
2022-07-29T23:23:36.981Z,97703.59
2022-07-29T23:27:15.674Z,97705.38
2022-07-29T23:30:21.595Z,97696.91
2022-07-29T23:33:25.900Z,97700.25
2022-07-29T23:36:29.822Z,97704.25
2022-07-29T23:39:34.243Z,97687.56
2022-07-29T23:42:38.623Z,97698.34
2022-07-29T23:45:48.638Z,97693.44
2022-07-29T23:48:52.838Z,97696.00
2022-07-29T23:51:57.348Z,97691.84
2022-07-29T23:55:36.800Z,97688.84
2022-07-29T23:58:42.719Z,97693.66
